Eads, Tennessee
Current Conditions -  °F | °C
As of 4:35 AM on Sunday 26 Oct 2014 (Local Time) from KNQA Reporting Station
Broken Clouds Broken Clouds  
Wind Chill: 14°   Ceiling: 100
Heat Index: 14°   Visibility: 0.25mi
Dew Point: 14°   Wind: 0mph
Humidity: 100%   Direction: NA
Pressure: 29.99"   Gusts: NA
Location:  35.2°N, 89.65°W
Report Text: KNQA 260935Z AUTO 00000KT 1/4SM BKN001 14/14 A2999 RMK
Loading
Personal Weather Stations






























Interactive Weather Map
Tropical Storm Tracking
New forecast layout! Learn more

10-Day Weather Forecast

Advertisements
Track Severe Weather on mobile